sensor_id;sensor_type;location;lat;lon;timestamp;P1;durP1;ratioP1;P2;durP2;ratioP2
7683;SDS011;3884;48.616;12.872;2023-07-20T00:00:15;7.90;;;4.40;;
7683;SDS011;3884;48.616;12.872;2023-07-20T00:02:43;10.80;;;4.90;;
7683;SDS011;3884;48.616;12.872;2023-07-20T00:05:10;6.77;;;4.30;;
7683;SDS011;3884;48.616;12.872;2023-07-20T00:07:36;6.60;;;4.20;;
7683;SDS011;3884;48.616;12.872;2023-07-20T00:10:04;9.23;;;4.50;;
7683;SDS011;3884;48.616;12.872;2023-07-20T00:12:31;7.90;;;4.57;;
7683;SDS011;3884;48.616;12.872;2023-07-20T00:14:58;5.33;;;4.03;;
7683;SDS011;3884;48.616;12.872;2023-07-20T00:17:26;6.80;;;4.20;;
7683;SDS011;3884;48.616;12.872;2023-07-20T00:19:53;6.33;;;4.27;;
7683;SDS011;3884;48.616;12.872;2023-07-20T00:22:20;4.67;;;4.17;;
7683;SDS011;3884;48.616;12.872;2023-07-20T00:24:47;6.67;;;4.10;;
7683;SDS011;3884;48.616;12.872;2023-07-20T00:27:14;5.77;;;4.33;;
7683;SDS011;3884;48.616;12.872;2023-07-20T00:29:41;7.00;;;4.47;;
7683;SDS011;3884;48.616;12.872;2023-07-20T00:32:08;8.70;;;5.13;;
7683;SDS011;3884;48.616;12.872;2023-07-20T00:34:37;5.73;;;4.23;;
7683;SDS011;3884;48.616;12.872;2023-07-20T00:37:04;6.00;;;4.20;;
7683;SDS011;3884;48.616;12.872;2023-07-20T00:39:31;5.87;;;4.00;;
7683;SDS011;3884;48.616;12.872;2023-07-20T00:41:58;5.80;;;4.20;;
7683;SDS011;3884;48.616;12.872;2023-07-20T00:44:25;5.60;;;4.40;;
7683;SDS011;3884;48.616;12.872;2023-07-20T00:46:52;5.30;;;4.20;;
7683;SDS011;3884;48.616;12.872;2023-07-20T00:49:19;5.33;;;4.70;;
7683;SDS011;3884;48.616;12.872;2023-07-20T00:51:48;4.60;;;4.20;;
7683;SDS011;3884;48.616;12.872;2023-07-20T00:54:16;8.80;;;5.10;;
7683;SDS011;3884;48.616;12.872;2023-07-20T00:56:43;9.40;;;4.67;;
7683;SDS011;3884;48.616;12.872;2023-07-20T00:59:12;5.90;;;3.83;;
7683;SDS011;3884;48.616;12.872;2023-07-20T01:01:39;5.43;;;4.37;;
7683;SDS011;3884;48.616;12.872;2023-07-20T01:04:06;6.60;;;4.13;;
7683;SDS011;3884;48.616;12.872;2023-07-20T01:06:36;7.30;;;4.50;;
7683;SDS011;3884;48.616;12.872;2023-07-20T01:09:13;7.40;;;4.60;;
7683;SDS011;3884;48.616;12.872;2023-07-20T01:11:46;8.53;;;4.67;;
7683;SDS011;3884;48.616;12.872;2023-07-20T01:14:20;7.30;;;4.60;;
7683;SDS011;3884;48.616;12.872;2023-07-20T01:16:48;6.93;;;4.03;;
7683;SDS011;3884;48.616;12.872;2023-07-20T01:19:17;5.33;;;4.13;;
7683;SDS011;3884;48.616;12.872;2023-07-20T01:21:45;5.60;;;3.70;;
7683;SDS011;3884;48.616;12.872;2023-07-20T01:27:42;4.87;;;4.20;;
7683;SDS011;3884;48.616;12.872;2023-07-20T01:30:42;6.33;;;4.20;;
7683;SDS011;3884;48.616;12.872;2023-07-20T01:33:18;7.63;;;4.63;;
7683;SDS011;3884;48.616;12.872;2023-07-20T01:35:50;7.67;;;3.97;;
7683;SDS011;3884;48.616;12.872;2023-07-20T01:38:19;6.57;;;4.20;;
7683;SDS011;3884;48.616;12.872;2023-07-20T01:40:48;4.80;;;4.30;;
7683;SDS011;3884;48.616;12.872;2023-07-20T01:43:15;6.83;;;4.00;;
7683;SDS011;3884;48.616;12.872;2023-07-20T01:45:42;7.27;;;4.33;;
7683;SDS011;3884;48.616;12.872;2023-07-20T01:48:09;6.73;;;4.07;;
7683;SDS011;3884;48.616;12.872;2023-07-20T01:50:38;7.03;;;4.10;;
7683;SDS011;3884;48.616;12.872;2023-07-20T01:53:05;6.07;;;3.77;;
7683;SDS011;3884;48.616;12.872;2023-07-20T01:55:32;6.70;;;4.43;;
7683;SDS011;3884;48.616;12.872;2023-07-20T01:57:58;4.70;;;3.97;;
7683;SDS011;3884;48.616;12.872;2023-07-20T02:00:27;6.23;;;4.00;;
7683;SDS011;3884;48.616;12.872;2023-07-20T02:02:54;5.50;;;3.70;;
7683;SDS011;3884;48.616;12.872;2023-07-20T02:05:21;6.40;;;3.87;;
7683;SDS011;3884;48.616;12.872;2023-07-20T02:07:49;6.20;;;4.57;;
7683;SDS011;3884;48.616;12.872;2023-07-20T02:10:18;6.60;;;3.90;;
7683;SDS011;3884;48.616;12.872;2023-07-20T02:12:45;4.53;;;4.03;;
7683;SDS011;3884;48.616;12.872;2023-07-20T02:15:12;6.53;;;4.07;;
7683;SDS011;3884;48.616;12.872;2023-07-20T02:17:41;5.37;;;4.27;;
7683;SDS011;3884;48.616;12.872;2023-07-20T02:20:08;5.13;;;4.00;;
7683;SDS011;3884;48.616;12.872;2023-07-20T02:22:36;7.17;;;4.23;;
7683;SDS011;3884;48.616;12.872;2023-07-20T02:25:06;5.90;;;4.17;;
7683;SDS011;3884;48.616;12.872;2023-07-20T02:27:33;7.27;;;4.23;;
7683;SDS011;3884;48.616;12.872;2023-07-20T02:30:00;6.17;;;4.47;;
7683;SDS011;3884;48.616;12.872;2023-07-20T02:32:29;5.40;;;4.40;;
7683;SDS011;3884;48.616;12.872;2023-07-20T02:34:56;8.23;;;4.60;;
7683;SDS011;3884;48.616;12.872;2023-07-20T02:37:24;8.60;;;4.00;;
7683;SDS011;3884;48.616;12.872;2023-07-20T02:39:50;6.80;;;3.97;;
7683;SDS011;3884;48.616;12.872;2023-07-20T02:42:19;5.60;;;3.87;;
7683;SDS011;3884;48.616;12.872;2023-07-20T02:44:48;9.23;;;4.77;;
7683;SDS011;3884;48.616;12.872;2023-07-20T02:47:15;7.30;;;4.20;;
7683;SDS011;3884;48.616;12.872;2023-07-20T02:49:42;7.20;;;4.23;;
7683;SDS011;3884;48.616;12.872;2023-07-20T02:52:08;5.80;;;4.27;;
7683;SDS011;3884;48.616;12.872;2023-07-20T02:54:35;5.40;;;4.03;;
7683;SDS011;3884;48.616;12.872;2023-07-20T02:57:02;6.07;;;4.37;;
7683;SDS011;3884;48.616;12.872;2023-07-20T02:59:31;5.90;;;4.17;;
7683;SDS011;3884;48.616;12.872;2023-07-20T03:01:58;5.90;;;4.77;;
7683;SDS011;3884;48.616;12.872;2023-07-20T03:04:25;8.23;;;4.40;;
7683;SDS011;3884;48.616;12.872;2023-07-20T03:06:53;7.90;;;4.57;;
7683;SDS011;3884;48.616;12.872;2023-07-20T03:09:20;5.93;;;4.47;;
7683;SDS011;3884;48.616;12.872;2023-07-20T03:11:47;6.30;;;4.30;;
7683;SDS011;3884;48.616;12.872;2023-07-20T03:14:15;9.50;;;4.33;;
7683;SDS011;3884;48.616;12.872;2023-07-20T03:16:44;10.33;;;4.70;;
7683;SDS011;3884;48.616;12.872;2023-07-20T03:19:12;8.23;;;4.70;;
7683;SDS011;3884;48.616;12.872;2023-07-20T03:21:40;8.07;;;4.90;;
7683;SDS011;3884;48.616;12.872;2023-07-20T03:24:07;6.83;;;4.67;;
7683;SDS011;3884;48.616;12.872;2023-07-20T03:26:34;6.33;;;4.37;;
7683;SDS011;3884;48.616;12.872;2023-07-20T03:29:02;7.73;;;4.47;;
7683;SDS011;3884;48.616;12.872;2023-07-20T03:31:32;8.07;;;4.60;;
7683;SDS011;3884;48.616;12.872;2023-07-20T03:34:00;8.67;;;4.80;;
7683;SDS011;3884;48.616;12.872;2023-07-20T03:36:27;7.97;;;4.60;;
7683;SDS011;3884;48.616;12.872;2023-07-20T03:38:54;6.53;;;4.63;;
7683;SDS011;3884;48.616;12.872;2023-07-20T03:41:21;7.90;;;5.00;;
7683;SDS011;3884;48.616;12.872;2023-07-20T03:43:48;6.23;;;4.67;;
7683;SDS011;3884;48.616;12.872;2023-07-20T03:46:15;8.27;;;4.67;;
7683;SDS011;3884;48.616;12.872;2023-07-20T03:48:42;6.67;;;4.70;;
7683;SDS011;3884;48.616;12.872;2023-07-20T03:51:10;6.87;;;4.57;;
7683;SDS011;3884;48.616;12.872;2023-07-20T03:53:37;8.73;;;4.63;;
7683;SDS011;3884;48.616;12.872;2023-07-20T03:56:04;6.57;;;4.43;;
7683;SDS011;3884;48.616;12.872;2023-07-20T03:58:31;5.03;;;4.30;;
7683;SDS011;3884;48.616;12.872;2023-07-20T04:00:58;5.40;;;4.87;;
7683;SDS011;3884;48.616;12.872;2023-07-20T04:03:25;4.83;;;4.33;;
7683;SDS011;3884;48.616;12.872;2023-07-20T04:05:53;7.80;;;4.77;;
7683;SDS011;3884;48.616;12.872;2023-07-20T04:08:21;7.33;;;4.30;;
7683;SDS011;3884;48.616;12.872;2023-07-20T04:10:49;8.77;;;4.53;;
7683;SDS011;3884;48.616;12.872;2023-07-20T04:13:16;7.60;;;5.00;;
7683;SDS011;3884;48.616;12.872;2023-07-20T04:15:43;7.77;;;4.10;;
7683;SDS011;3884;48.616;12.872;2023-07-20T04:18:11;6.40;;;4.80;;
7683;SDS011;3884;48.616;12.872;2023-07-20T04:20:38;5.93;;;4.17;;
7683;SDS011;3884;48.616;12.872;2023-07-20T04:23:05;8.20;;;5.10;;
7683;SDS011;3884;48.616;12.872;2023-07-20T04:25:33;6.07;;;4.47;;
7683;SDS011;3884;48.616;12.872;2023-07-20T04:28:04;6.63;;;4.77;;
7683;SDS011;3884;48.616;12.872;2023-07-20T04:30:35;6.10;;;4.63;;
7683;SDS011;3884;48.616;12.872;2023-07-20T04:33:03;6.53;;;4.23;;
7683;SDS011;3884;48.616;12.872;2023-07-20T04:35:49;6.57;;;4.50;;
7683;SDS011;3884;48.616;12.872;2023-07-20T04:38:28;6.23;;;4.23;;
7683;SDS011;3884;48.616;12.872;2023-07-20T04:41:06;6.43;;;4.20;;
7683;SDS011;3884;48.616;12.872;2023-07-20T04:43:40;5.83;;;4.77;;
7683;SDS011;3884;48.616;12.872;2023-07-20T04:46:10;6.93;;;4.60;;
7683;SDS011;3884;48.616;12.872;2023-07-20T04:48:37;8.73;;;4.83;;
7683;SDS011;3884;48.616;12.872;2023-07-20T04:51:05;7.93;;;4.43;;
7683;SDS011;3884;48.616;12.872;2023-07-20T04:53:32;7.27;;;5.10;;
7683;SDS011;3884;48.616;12.872;2023-07-20T04:56:00;6.40;;;4.37;;
7683;SDS011;3884;48.616;12.872;2023-07-20T04:58:29;6.53;;;4.90;;
7683;SDS011;3884;48.616;12.872;2023-07-20T05:00:56;8.67;;;4.70;;
7683;SDS011;3884;48.616;12.872;2023-07-20T05:03:23;7.47;;;4.50;;
7683;SDS011;3884;48.616;12.872;2023-07-20T05:05:50;7.33;;;4.83;;
7683;SDS011;3884;48.616;12.872;2023-07-20T05:08:17;8.27;;;5.03;;
7683;SDS011;3884;48.616;12.872;2023-07-20T05:10:45;7.17;;;5.00;;
7683;SDS011;3884;48.616;12.872;2023-07-20T05:13:12;5.50;;;4.03;;
7683;SDS011;3884;48.616;12.872;2023-07-20T05:15:41;7.70;;;4.20;;
7683;SDS011;3884;48.616;12.872;2023-07-20T05:18:11;5.20;;;3.93;;
7683;SDS011;3884;48.616;12.872;2023-07-20T05:20:38;7.53;;;4.20;;
7683;SDS011;3884;48.616;12.872;2023-07-20T05:23:05;7.93;;;4.03;;
7683;SDS011;3884;48.616;12.872;2023-07-20T05:25:32;4.83;;;4.20;;
7683;SDS011;3884;48.616;12.872;2023-07-20T05:27:59;5.93;;;3.80;;
7683;SDS011;3884;48.616;12.872;2023-07-20T05:30:26;4.83;;;3.70;;
7683;SDS011;3884;48.616;12.872;2023-07-20T05:32:55;7.03;;;3.83;;
7683;SDS011;3884;48.616;12.872;2023-07-20T05:35:22;6.60;;;3.50;;
7683;SDS011;3884;48.616;12.872;2023-07-20T05:37:49;6.17;;;3.60;;
7683;SDS011;3884;48.616;12.872;2023-07-20T05:40:16;5.70;;;3.70;;
7683;SDS011;3884;48.616;12.872;2023-07-20T05:42:44;8.57;;;3.27;;
7683;SDS011;3884;48.616;12.872;2023-07-20T05:45:14;4.43;;;3.23;;
7683;SDS011;3884;48.616;12.872;2023-07-20T05:47:41;6.97;;;2.87;;
7683;SDS011;3884;48.616;12.872;2023-07-20T05:50:09;4.37;;;3.20;;
7683;SDS011;3884;48.616;12.872;2023-07-20T05:52:37;5.87;;;3.30;;
7683;SDS011;3884;48.616;12.872;2023-07-20T05:55:04;5.17;;;3.37;;
7683;SDS011;3884;48.616;12.872;2023-07-20T05:57:32;3.33;;;3.03;;
7683;SDS011;3884;48.616;12.872;2023-07-20T06:00:00;7.23;;;3.20;;
7683;SDS011;3884;48.616;12.872;2023-07-20T06:02:37;3.87;;;2.77;;
7683;SDS011;3884;48.616;12.872;2023-07-20T06:05:04;4.67;;;2.90;;
7683;SDS011;3884;48.616;12.872;2023-07-20T06:07:35;4.40;;;2.97;;
7683;SDS011;3884;48.616;12.872;2023-07-20T06:10:03;3.80;;;2.77;;
7683;SDS011;3884;48.616;12.872;2023-07-20T06:12:30;3.53;;;3.00;;
7683;SDS011;3884;48.616;12.872;2023-07-20T06:14:57;4.00;;;3.00;;
7683;SDS011;3884;48.616;12.872;2023-07-20T06:17:28;5.00;;;2.80;;
7683;SDS011;3884;48.616;12.872;2023-07-20T06:19:54;4.00;;;2.83;;
7683;SDS011;3884;48.616;12.872;2023-07-20T06:22:21;6.13;;;2.90;;
7683;SDS011;3884;48.616;12.872;2023-07-20T06:24:51;3.17;;;2.73;;
7683;SDS011;3884;48.616;12.872;2023-07-20T06:27:18;3.37;;;2.90;;
7683;SDS011;3884;48.616;12.872;2023-07-20T06:29:44;4.17;;;2.97;;
7683;SDS011;3884;48.616;12.872;2023-07-20T06:32:11;4.83;;;2.83;;
7683;SDS011;3884;48.616;12.872;2023-07-20T06:34:38;3.37;;;2.63;;
7683;SDS011;3884;48.616;12.872;2023-07-20T06:37:05;3.97;;;2.80;;
7683;SDS011;3884;48.616;12.872;2023-07-20T06:39:32;4.60;;;2.43;;
7683;SDS011;3884;48.616;12.872;2023-07-20T06:42:00;4.53;;;2.90;;
7683;SDS011;3884;48.616;12.872;2023-07-20T06:44:28;4.40;;;2.90;;
7683;SDS011;3884;48.616;12.872;2023-07-20T06:46:55;4.03;;;2.60;;
7683;SDS011;3884;48.616;12.872;2023-07-20T06:49:25;5.97;;;2.90;;
7683;SDS011;3884;48.616;12.872;2023-07-20T06:51:52;4.37;;;2.70;;
7683;SDS011;3884;48.616;12.872;2023-07-20T06:54:19;3.60;;;2.70;;
7683;SDS011;3884;48.616;12.872;2023-07-20T06:56:47;5.33;;;2.70;;
7683;SDS011;3884;48.616;12.872;2023-07-20T06:59:15;5.60;;;2.70;;
7683;SDS011;3884;48.616;12.872;2023-07-20T07:01:42;4.73;;;3.00;;
7683;SDS011;3884;48.616;12.872;2023-07-20T07:04:09;5.37;;;2.83;;
7683;SDS011;3884;48.616;12.872;2023-07-20T07:06:36;3.33;;;2.50;;
7683;SDS011;3884;48.616;12.872;2023-07-20T07:09:03;4.53;;;2.70;;
7683;SDS011;3884;48.616;12.872;2023-07-20T07:11:30;6.77;;;3.00;;
7683;SDS011;3884;48.616;12.872;2023-07-20T07:13:57;5.53;;;2.90;;
7683;SDS011;3884;48.616;12.872;2023-07-20T07:16:26;4.53;;;2.50;;
7683;SDS011;3884;48.616;12.872;2023-07-20T07:18:53;4.30;;;2.80;;
7683;SDS011;3884;48.616;12.872;2023-07-20T07:21:20;5.63;;;3.40;;
7683;SDS011;3884;48.616;12.872;2023-07-20T07:23:47;3.03;;;2.43;;
7683;SDS011;3884;48.616;12.872;2023-07-20T07:26:14;5.50;;;2.73;;
7683;SDS011;3884;48.616;12.872;2023-07-20T07:28:41;4.73;;;2.80;;
7683;SDS011;3884;48.616;12.872;2023-07-20T07:31:08;5.73;;;2.70;;
7683;SDS011;3884;48.616;12.872;2023-07-20T07:33:37;3.33;;;3.03;;
7683;SDS011;3884;48.616;12.872;2023-07-20T07:36:04;3.30;;;2.60;;
7683;SDS011;3884;48.616;12.872;2023-07-20T07:38:31;5.87;;;3.57;;
7683;SDS011;3884;48.616;12.872;2023-07-20T07:40:58;6.77;;;3.23;;
7683;SDS011;3884;48.616;12.872;2023-07-20T07:43:25;4.00;;;3.17;;
7683;SDS011;3884;48.616;12.872;2023-07-20T07:45:53;4.63;;;3.03;;
7683;SDS011;3884;48.616;12.872;2023-07-20T07:48:20;6.32;;;3.53;;
7683;SDS011;3884;48.616;12.872;2023-07-20T07:50:49;6.83;;;2.83;;
7683;SDS011;3884;48.616;12.872;2023-07-20T07:53:16;7.13;;;3.20;;
7683;SDS011;3884;48.616;12.872;2023-07-20T07:55:43;4.20;;;3.30;;
7683;SDS011;3884;48.616;12.872;2023-07-20T07:58:10;4.77;;;3.10;;
7683;SDS011;3884;48.616;12.872;2023-07-20T08:00:37;4.47;;;3.23;;
7683;SDS011;3884;48.616;12.872;2023-07-20T08:03:04;5.73;;;3.17;;
7683;SDS011;3884;48.616;12.872;2023-07-20T08:05:32;4.20;;;2.63;;
7683;SDS011;3884;48.616;12.872;2023-07-20T08:08:01;4.37;;;3.10;;
7683;SDS011;3884;48.616;12.872;2023-07-20T08:10:28;3.33;;;2.97;;
7683;SDS011;3884;48.616;12.872;2023-07-20T08:12:55;4.07;;;2.93;;
7683;SDS011;3884;48.616;12.872;2023-07-20T08:15:22;3.63;;;3.00;;
7683;SDS011;3884;48.616;12.872;2023-07-20T08:17:49;4.03;;;2.93;;
7683;SDS011;3884;48.616;12.872;2023-07-20T08:20:17;4.13;;;2.83;;
7683;SDS011;3884;48.616;12.872;2023-07-20T08:22:48;8.27;;;3.00;;
7683;SDS011;3884;48.616;12.872;2023-07-20T08:25:16;4.47;;;2.90;;
7683;SDS011;3884;48.616;12.872;2023-07-20T08:27:44;5.73;;;2.93;;
7683;SDS011;3884;48.616;12.872;2023-07-20T08:30:11;6.03;;;3.00;;
7683;SDS011;3884;48.616;12.872;2023-07-20T08:32:38;5.70;;;3.03;;
7683;SDS011;3884;48.616;12.872;2023-07-20T08:35:06;4.37;;;3.00;;
7683;SDS011;3884;48.616;12.872;2023-07-20T08:37:33;4.70;;;2.67;;
7683;SDS011;3884;48.616;12.872;2023-07-20T08:40:00;3.50;;;2.97;;
7683;SDS011;3884;48.616;12.872;2023-07-20T08:42:32;4.53;;;3.23;;
7683;SDS011;3884;48.616;12.872;2023-07-20T08:45:01;5.60;;;3.40;;
7683;SDS011;3884;48.616;12.872;2023-07-20T08:47:33;4.40;;;2.87;;
7683;SDS011;3884;48.616;12.872;2023-07-20T08:50:01;5.40;;;3.40;;
7683;SDS011;3884;48.616;12.872;2023-07-20T08:52:32;4.73;;;2.90;;
7683;SDS011;3884;48.616;12.872;2023-07-20T08:55:00;6.20;;;3.30;;
7683;SDS011;3884;48.616;12.872;2023-07-20T08:57:28;4.20;;;3.00;;
7683;SDS011;3884;48.616;12.872;2023-07-20T08:59:59;3.77;;;2.80;;
7683;SDS011;3884;48.616;12.872;2023-07-20T09:02:29;6.30;;;2.73;;
7683;SDS011;3884;48.616;12.872;2023-07-20T09:05:02;5.65;;;2.90;;
7683;SDS011;3884;48.616;12.872;2023-07-20T09:07:29;4.83;;;2.70;;
7683;SDS011;3884;48.616;12.872;2023-07-20T09:09:58;4.20;;;2.70;;
7683;SDS011;3884;48.616;12.872;2023-07-20T09:12:30;4.37;;;2.90;;
7683;SDS011;3884;48.616;12.872;2023-07-20T09:14:59;4.33;;;2.70;;
7683;SDS011;3884;48.616;12.872;2023-07-20T09:17:29;5.37;;;2.83;;
7683;SDS011;3884;48.616;12.872;2023-07-20T09:19:57;4.60;;;3.00;;
7683;SDS011;3884;48.616;12.872;2023-07-20T09:25:40;4.60;;;2.97;;
7683;SDS011;3884;48.616;12.872;2023-07-20T09:28:07;3.80;;;2.50;;
7683;SDS011;3884;48.616;12.872;2023-07-20T09:30:35;4.63;;;2.73;;
7683;SDS011;3884;48.616;12.872;2023-07-20T09:33:02;3.20;;;2.50;;
7683;SDS011;3884;48.616;12.872;2023-07-20T09:35:29;3.33;;;2.50;;
7683;SDS011;3884;48.616;12.872;2023-07-20T09:37:57;5.57;;;2.50;;
7683;SDS011;3884;48.616;12.872;2023-07-20T09:40:27;3.87;;;2.60;;
7683;SDS011;3884;48.616;12.872;2023-07-20T09:42:54;4.23;;;2.50;;
7683;SDS011;3884;48.616;12.872;2023-07-20T09:45:27;3.10;;;2.50;;
7683;SDS011;3884;48.616;12.872;2023-07-20T09:48:02;4.70;;;2.40;;
7683;SDS011;3884;48.616;12.872;2023-07-20T09:50:30;3.37;;;2.50;;
7683;SDS011;3884;48.616;12.872;2023-07-20T09:52:57;3.03;;;2.60;;
7683;SDS011;3884;48.616;12.872;2023-07-20T09:55:26;4.77;;;2.43;;
7683;SDS011;3884;48.616;12.872;2023-07-20T09:57:53;5.83;;;2.87;;
7683;SDS011;3884;48.616;12.872;2023-07-20T10:00:20;4.43;;;2.77;;
7683;SDS011;3884;48.616;12.872;2023-07-20T10:02:47;2.50;;;2.30;;
7683;SDS011;3884;48.616;12.872;2023-07-20T10:05:19;3.23;;;2.43;;
7683;SDS011;3884;48.616;12.872;2023-07-20T10:07:47;5.50;;;2.70;;
7683;SDS011;3884;48.616;12.872;2023-07-20T10:10:15;5.10;;;2.70;;
7683;SDS011;3884;48.616;12.872;2023-07-20T10:12:44;4.77;;;2.93;;
7683;SDS011;3884;48.616;12.872;2023-07-20T10:15:15;2.93;;;2.60;;
7683;SDS011;3884;48.616;12.872;2023-07-20T10:17:47;4.20;;;2.43;;
7683;SDS011;3884;48.616;12.872;2023-07-20T10:20:22;3.00;;;2.40;;
7683;SDS011;3884;48.616;12.872;2023-07-20T10:22:50;3.77;;;2.70;;
7683;SDS011;3884;48.616;12.872;2023-07-20T10:25:20;3.43;;;2.70;;
7683;SDS011;3884;48.616;12.872;2023-07-20T10:27:49;4.10;;;2.87;;
7683;SDS011;3884;48.616;12.872;2023-07-20T10:30:17;3.53;;;2.80;;
7683;SDS011;3884;48.616;12.872;2023-07-20T10:32:45;6.33;;;2.70;;
7683;SDS011;3884;48.616;12.872;2023-07-20T10:35:13;4.90;;;2.90;;
7683;SDS011;3884;48.616;12.872;2023-07-20T10:37:51;4.77;;;2.60;;
7683;SDS011;3884;48.616;12.872;2023-07-20T10:40:30;3.87;;;2.60;;
7683;SDS011;3884;48.616;12.872;2023-07-20T10:42:58;3.27;;;2.50;;
7683;SDS011;3884;48.616;12.872;2023-07-20T10:45:36;2.60;;;2.20;;
7683;SDS011;3884;48.616;12.872;2023-07-20T10:48:06;3.13;;;2.20;;
7683;SDS011;3884;48.616;12.872;2023-07-20T10:50:40;4.03;;;2.60;;
7683;SDS011;3884;48.616;12.872;2023-07-20T10:53:12;2.93;;;2.50;;
7683;SDS011;3884;48.616;12.872;2023-07-20T10:55:40;5.67;;;2.20;;
7683;SDS011;3884;48.616;12.872;2023-07-20T10:58:12;2.70;;;2.10;;
7683;SDS011;3884;48.616;12.872;2023-07-20T11:01:00;3.33;;;2.47;;
7683;SDS011;3884;48.616;12.872;2023-07-20T11:03:29;4.73;;;2.73;;
7683;SDS011;3884;48.616;12.872;2023-07-20T11:05:58;2.67;;;2.20;;
7683;SDS011;3884;48.616;12.872;2023-07-20T11:08:39;3.93;;;2.17;;
7683;SDS011;3884;48.616;12.872;2023-07-20T11:11:22;4.57;;;1.90;;
7683;SDS011;3884;48.616;12.872;2023-07-20T11:13:59;4.17;;;2.33;;
7683;SDS011;3884;48.616;12.872;2023-07-20T11:16:34;2.90;;;2.17;;
7683;SDS011;3884;48.616;12.872;2023-07-20T11:19:02;2.93;;;2.50;;
7683;SDS011;3884;48.616;12.872;2023-07-20T11:21:30;3.53;;;2.33;;
7683;SDS011;3884;48.616;12.872;2023-07-20T11:24:04;3.30;;;2.30;;
7683;SDS011;3884;48.616;12.872;2023-07-20T11:26:39;3.10;;;2.50;;
7683;SDS011;3884;48.616;12.872;2023-07-20T11:29:07;4.13;;;2.30;;
7683;SDS011;3884;48.616;12.872;2023-07-20T11:31:37;2.50;;;2.30;;
7683;SDS011;3884;48.616;12.872;2023-07-20T11:34:04;2.77;;;2.33;;
7683;SDS011;3884;48.616;12.872;2023-07-20T11:36:32;3.30;;;2.53;;
7683;SDS011;3884;48.616;12.872;2023-07-20T11:38:59;3.70;;;2.53;;
7683;SDS011;3884;48.616;12.872;2023-07-20T11:41:31;2.50;;;2.30;;
7683;SDS011;3884;48.616;12.872;2023-07-20T11:43:58;2.80;;;2.10;;
7683;SDS011;3884;48.616;12.872;2023-07-20T11:46:25;3.73;;;2.30;;
7683;SDS011;3884;48.616;12.872;2023-07-20T11:48:57;4.73;;;2.10;;
7683;SDS011;3884;48.616;12.872;2023-07-20T11:51:25;3.97;;;2.60;;
7683;SDS011;3884;48.616;12.872;2023-07-20T11:53:53;5.23;;;2.30;;
7683;SDS011;3884;48.616;12.872;2023-07-20T11:56:21;4.93;;;2.30;;
7683;SDS011;3884;48.616;12.872;2023-07-20T11:58:54;2.83;;;2.47;;
7683;SDS011;3884;48.616;12.872;2023-07-20T12:01:24;6.00;;;2.40;;
7683;SDS011;3884;48.616;12.872;2023-07-20T12:03:54;2.37;;;2.10;;
7683;SDS011;3884;48.616;12.872;2023-07-20T12:06:23;4.23;;;2.30;;
7683;SDS011;3884;48.616;12.872;2023-07-20T12:08:53;3.80;;;2.40;;
7683;SDS011;3884;48.616;12.872;2023-07-20T12:11:31;2.67;;;2.47;;
7683;SDS011;3884;48.616;12.872;2023-07-20T12:14:00;5.37;;;2.30;;
7683;SDS011;3884;48.616;12.872;2023-07-20T12:16:28;2.73;;;2.20;;
7683;SDS011;3884;48.616;12.872;2023-07-20T12:18:59;3.33;;;2.20;;
7683;SDS011;3884;48.616;12.872;2023-07-20T12:21:27;2.50;;;2.30;;
7683;SDS011;3884;48.616;12.872;2023-07-20T12:23:56;4.37;;;2.40;;
7683;SDS011;3884;48.616;12.872;2023-07-20T12:26:24;4.10;;;2.30;;
7683;SDS011;3884;48.616;12.872;2023-07-20T12:28:51;3.87;;;2.10;;
7683;SDS011;3884;48.616;12.872;2023-07-20T12:31:20;4.87;;;2.27;;
7683;SDS011;3884;48.616;12.872;2023-07-20T12:33:49;4.37;;;2.10;;
7683;SDS011;3884;48.616;12.872;2023-07-20T12:36:16;3.63;;;2.20;;
7683;SDS011;3884;48.616;12.872;2023-07-20T12:38:44;3.03;;;2.40;;
7683;SDS011;3884;48.616;12.872;2023-07-20T12:41:11;4.17;;;2.87;;
7683;SDS011;3884;48.616;12.872;2023-07-20T12:43:39;4.23;;;2.30;;
7683;SDS011;3884;48.616;12.872;2023-07-20T12:46:06;3.00;;;2.20;;
7683;SDS011;3884;48.616;12.872;2023-07-20T12:48:35;5.03;;;1.93;;
7683;SDS011;3884;48.616;12.872;2023-07-20T12:51:02;2.20;;;2.00;;
7683;SDS011;3884;48.616;12.872;2023-07-20T12:53:30;3.60;;;2.00;;
7683;SDS011;3884;48.616;12.872;2023-07-20T12:55:57;5.57;;;2.33;;
7683;SDS011;3884;48.616;12.872;2023-07-20T12:58:24;3.00;;;2.43;;
7683;SDS011;3884;48.616;12.872;2023-07-20T13:00:51;2.60;;;2.40;;
7683;SDS011;3884;48.616;12.872;2023-07-20T13:03:18;2.20;;;2.00;;
7683;SDS011;3884;48.616;12.872;2023-07-20T13:05:47;2.97;;;2.10;;
7683;SDS011;3884;48.616;12.872;2023-07-20T13:08:14;2.40;;;2.00;;
7683;SDS011;3884;48.616;12.872;2023-07-20T13:10:41;5.97;;;2.20;;
7683;SDS011;3884;48.616;12.872;2023-07-20T13:13:10;3.07;;;2.03;;
7683;SDS011;3884;48.616;12.872;2023-07-20T13:15:40;3.33;;;2.10;;
7683;SDS011;3884;48.616;12.872;2023-07-20T13:18:08;3.10;;;2.27;;
7683;SDS011;3884;48.616;12.872;2023-07-20T13:20:36;3.37;;;2.07;;
7683;SDS011;3884;48.616;12.872;2023-07-20T13:23:04;2.53;;;1.93;;
7683;SDS011;3884;48.616;12.872;2023-07-20T13:25:31;3.50;;;2.00;;
7683;SDS011;3884;48.616;12.872;2023-07-20T13:27:58;3.27;;;2.00;;
7683;SDS011;3884;48.616;12.872;2023-07-20T13:30:25;3.00;;;2.27;;
7683;SDS011;3884;48.616;12.872;2023-07-20T13:32:52;2.30;;;2.10;;
7683;SDS011;3884;48.616;12.872;2023-07-20T13:35:18;3.33;;;2.23;;
7683;SDS011;3884;48.616;12.872;2023-07-20T13:37:45;2.50;;;2.00;;
7683;SDS011;3884;48.616;12.872;2023-07-20T13:40:15;2.30;;;2.03;;
7683;SDS011;3884;48.616;12.872;2023-07-20T13:42:43;3.63;;;2.30;;
7683;SDS011;3884;48.616;12.872;2023-07-20T13:45:11;3.87;;;2.20;;
7683;SDS011;3884;48.616;12.872;2023-07-20T13:47:39;3.20;;;2.30;;
7683;SDS011;3884;48.616;12.872;2023-07-20T13:50:06;2.17;;;1.97;;
7683;SDS011;3884;48.616;12.872;2023-07-20T13:52:34;5.77;;;2.20;;
7683;SDS011;3884;48.616;12.872;2023-07-20T13:55:02;4.10;;;2.33;;
7683;SDS011;3884;48.616;12.872;2023-07-20T13:57:31;3.83;;;2.20;;
7683;SDS011;3884;48.616;12.872;2023-07-20T13:59:58;4.47;;;2.30;;
7683;SDS011;3884;48.616;12.872;2023-07-20T14:02:25;3.63;;;2.40;;
7683;SDS011;3884;48.616;12.872;2023-07-20T14:04:52;4.13;;;2.40;;
7683;SDS011;3884;48.616;12.872;2023-07-20T14:07:20;3.67;;;2.00;;
7683;SDS011;3884;48.616;12.872;2023-07-20T14:09:47;3.13;;;2.40;;
7683;SDS011;3884;48.616;12.872;2023-07-20T14:12:14;2.63;;;2.00;;
7683;SDS011;3884;48.616;12.872;2023-07-20T14:14:42;2.93;;;1.93;;
7683;SDS011;3884;48.616;12.872;2023-07-20T14:17:09;5.40;;;2.23;;
7683;SDS011;3884;48.616;12.872;2023-07-20T14:19:37;2.43;;;1.90;;
7683;SDS011;3884;48.616;12.872;2023-07-20T14:22:04;3.83;;;2.00;;
7683;SDS011;3884;48.616;12.872;2023-07-20T14:24:31;5.70;;;2.00;;
7683;SDS011;3884;48.616;12.872;2023-07-20T14:26:58;4.00;;;2.20;;
7683;SDS011;3884;48.616;12.872;2023-07-20T14:29:25;3.50;;;2.00;;
7683;SDS011;3884;48.616;12.872;2023-07-20T14:31:57;5.73;;;2.03;;
7683;SDS011;3884;48.616;12.872;2023-07-20T14:34:24;2.67;;;2.10;;
7683;SDS011;3884;48.616;12.872;2023-07-20T14:36:51;5.43;;;3.30;;
7683;SDS011;3884;48.616;12.872;2023-07-20T14:39:18;3.87;;;2.13;;
7683;SDS011;3884;48.616;12.872;2023-07-20T14:41:46;4.77;;;2.10;;
7683;SDS011;3884;48.616;12.872;2023-07-20T14:44:13;3.53;;;2.00;;
7683;SDS011;3884;48.616;12.872;2023-07-20T14:46:40;2.63;;;2.23;;
7683;SDS011;3884;48.616;12.872;2023-07-20T14:49:08;2.73;;;1.90;;
7683;SDS011;3884;48.616;12.872;2023-07-20T14:51:35;1.90;;;1.60;;
7683;SDS011;3884;48.616;12.872;2023-07-20T14:54:08;2.57;;;1.83;;
7683;SDS011;3884;48.616;12.872;2023-07-20T14:56:35;2.67;;;1.83;;
7683;SDS011;3884;48.616;12.872;2023-07-20T14:59:03;2.10;;;1.87;;
7683;SDS011;3884;48.616;12.872;2023-07-20T15:01:31;2.97;;;1.73;;
7683;SDS011;3884;48.616;12.872;2023-07-20T15:03:58;5.23;;;1.90;;
7683;SDS011;3884;48.616;12.872;2023-07-20T15:06:27;2.70;;;1.87;;
7683;SDS011;3884;48.616;12.872;2023-07-20T15:08:55;4.20;;;1.80;;
7683;SDS011;3884;48.616;12.872;2023-07-20T15:11:22;4.60;;;1.90;;
7683;SDS011;3884;48.616;12.872;2023-07-20T15:13:49;4.20;;;2.20;;